sensor_id;sensor_type;location;lat;lon;timestamp;P1;durP1;ratioP1;P2;durP2;ratioP2
34080;SDS011;20358;50.272;19.026;2022-09-09T00:02:18;8.67;;;7.77;;
34080;SDS011;20358;50.272;19.026;2022-09-09T00:05:29;8.67;;;7.80;;
34080;SDS011;20358;50.272;19.026;2022-09-09T00:08:42;9.47;;;8.47;;
34080;SDS011;20358;50.272;19.026;2022-09-09T00:11:59;9.17;;;8.23;;
34080;SDS011;20358;50.272;19.026;2022-09-09T00:15:11;9.97;;;8.97;;
34080;SDS011;20358;50.272;19.026;2022-09-09T00:18:21;10.90;;;9.90;;
34080;SDS011;20358;50.272;19.026;2022-09-09T00:21:34;11.67;;;10.47;;
34080;SDS011;20358;50.272;19.026;2022-09-09T00:24:43;13.63;;;11.33;;
34080;SDS011;20358;50.272;19.026;2022-09-09T00:27:54;13.73;;;12.30;;
34080;SDS011;20358;50.272;19.026;2022-09-09T00:31:08;13.80;;;12.30;;
34080;SDS011;20358;50.272;19.026;2022-09-09T00:34:18;15.87;;;13.30;;
34080;SDS011;20358;50.272;19.026;2022-09-09T00:37:29;16.40;;;14.70;;
34080;SDS011;20358;50.272;19.026;2022-09-09T00:40:38;18.30;;;15.70;;
34080;SDS011;20358;50.272;19.026;2022-09-09T00:43:57;19.57;;;15.83;;
34080;SDS011;20358;50.272;19.026;2022-09-09T00:47:12;20.17;;;16.70;;
34080;SDS011;20358;50.272;19.026;2022-09-09T00:50:39;23.43;;;17.40;;
34080;SDS011;20358;50.272;19.026;2022-09-09T00:53:57;19.50;;;16.83;;
34080;SDS011;20358;50.272;19.026;2022-09-09T00:57:23;24.87;;;17.27;;
34080;SDS011;20358;50.272;19.026;2022-09-09T01:00:37;24.93;;;19.47;;
34080;SDS011;20358;50.272;19.026;2022-09-09T01:03:49;26.40;;;18.00;;
34080;SDS011;20358;50.272;19.026;2022-09-09T01:07:05;29.43;;;20.43;;
34080;SDS011;20358;50.272;19.026;2022-09-09T01:10:21;29.07;;;19.57;;
34080;SDS011;20358;50.272;19.026;2022-09-09T01:13:35;28.23;;;20.87;;
34080;SDS011;20358;50.272;19.026;2022-09-09T01:16:47;30.87;;;22.13;;
34080;SDS011;20358;50.272;19.026;2022-09-09T01:19:59;36.70;;;21.63;;
34080;SDS011;20358;50.272;19.026;2022-09-09T01:23:26;29.33;;;21.50;;
34080;SDS011;20358;50.272;19.026;2022-09-09T01:27:02;30.03;;;21.93;;
34080;SDS011;20358;50.272;19.026;2022-09-09T01:30:12;25.73;;;20.43;;
34080;SDS011;20358;50.272;19.026;2022-09-09T01:33:22;23.60;;;19.00;;
34080;SDS011;20358;50.272;19.026;2022-09-09T01:36:29;24.37;;;19.17;;
34080;SDS011;20358;50.272;19.026;2022-09-09T01:39:41;21.37;;;18.13;;
34080;SDS011;20358;50.272;19.026;2022-09-09T01:42:55;24.10;;;17.33;;
34080;SDS011;20358;50.272;19.026;2022-09-09T01:46:03;21.00;;;17.67;;
34080;SDS011;20358;50.272;19.026;2022-09-09T01:49:12;24.80;;;18.53;;
34080;SDS011;20358;50.272;19.026;2022-09-09T01:52:18;22.13;;;17.93;;
34080;SDS011;20358;50.272;19.026;2022-09-09T01:55:28;23.37;;;19.40;;
34080;SDS011;20358;50.272;19.026;2022-09-09T01:58:42;22.97;;;18.57;;
34080;SDS011;20358;50.272;19.026;2022-09-09T02:02:01;22.43;;;18.27;;
34080;SDS011;20358;50.272;19.026;2022-09-09T02:05:24;23.37;;;19.20;;
34080;SDS011;20358;50.272;19.026;2022-09-09T02:08:40;24.63;;;20.03;;
34080;SDS011;20358;50.272;19.026;2022-09-09T02:11:52;24.17;;;19.87;;
34080;SDS011;20358;50.272;19.026;2022-09-09T02:15:23;24.10;;;19.67;;
34080;SDS011;20358;50.272;19.026;2022-09-09T02:18:35;23.77;;;19.43;;
34080;SDS011;20358;50.272;19.026;2022-09-09T02:21:49;22.20;;;18.33;;
34080;SDS011;20358;50.272;19.026;2022-09-09T02:24:56;22.97;;;18.67;;
34080;SDS011;20358;50.272;19.026;2022-09-09T02:28:06;21.87;;;18.67;;
34080;SDS011;20358;50.272;19.026;2022-09-09T02:31:18;27.47;;;20.73;;
34080;SDS011;20358;50.272;19.026;2022-09-09T02:34:28;21.33;;;18.73;;
34080;SDS011;20358;50.272;19.026;2022-09-09T02:37:38;23.70;;;19.43;;
34080;SDS011;20358;50.272;19.026;2022-09-09T02:40:50;24.63;;;19.80;;
34080;SDS011;20358;50.272;19.026;2022-09-09T02:43:56;27.77;;;20.03;;
34080;SDS011;20358;50.272;19.026;2022-09-09T02:47:10;22.73;;;19.97;;
34080;SDS011;20358;50.272;19.026;2022-09-09T02:50:39;22.27;;;18.67;;
34080;SDS011;20358;50.272;19.026;2022-09-09T02:53:59;24.50;;;19.60;;
34080;SDS011;20358;50.272;19.026;2022-09-09T02:57:14;23.93;;;19.40;;
34080;SDS011;20358;50.272;19.026;2022-09-09T03:00:26;28.53;;;20.37;;
34080;SDS011;20358;50.272;19.026;2022-09-09T03:03:39;23.90;;;19.10;;
34080;SDS011;20358;50.272;19.026;2022-09-09T03:06:50;23.83;;;19.07;;
34080;SDS011;20358;50.272;19.026;2022-09-09T03:09:57;21.57;;;18.03;;
34080;SDS011;20358;50.272;19.026;2022-09-09T03:13:06;23.37;;;19.10;;
34080;SDS011;20358;50.272;19.026;2022-09-09T03:16:14;24.13;;;18.53;;
34080;SDS011;20358;50.272;19.026;2022-09-09T03:19:27;23.03;;;18.70;;
34080;SDS011;20358;50.272;19.026;2022-09-09T03:22:34;24.17;;;19.80;;
34080;SDS011;20358;50.272;19.026;2022-09-09T03:25:46;22.77;;;18.93;;
34080;SDS011;20358;50.272;19.026;2022-09-09T03:28:56;21.97;;;18.27;;
34080;SDS011;20358;50.272;19.026;2022-09-09T03:32:06;20.57;;;18.37;;
34080;SDS011;20358;50.272;19.026;2022-09-09T03:35:16;24.87;;;18.57;;
34080;SDS011;20358;50.272;19.026;2022-09-09T03:38:24;22.10;;;18.73;;
34080;SDS011;20358;50.272;19.026;2022-09-09T03:41:30;23.77;;;18.73;;
34080;SDS011;20358;50.272;19.026;2022-09-09T03:44:38;22.93;;;18.67;;
34080;SDS011;20358;50.272;19.026;2022-09-09T03:47:44;21.70;;;18.43;;
34080;SDS011;20358;50.272;19.026;2022-09-09T03:50:55;24.87;;;19.43;;
34080;SDS011;20358;50.272;19.026;2022-09-09T03:54:06;21.47;;;17.63;;
34080;SDS011;20358;50.272;19.026;2022-09-09T03:57:14;21.27;;;18.00;;
34080;SDS011;20358;50.272;19.026;2022-09-09T04:00:20;22.53;;;19.07;;
34080;SDS011;20358;50.272;19.026;2022-09-09T04:03:29;23.97;;;18.43;;
34080;SDS011;20358;50.272;19.026;2022-09-09T04:06:38;24.33;;;19.10;;
34080;SDS011;20358;50.272;19.026;2022-09-09T04:09:45;22.47;;;17.90;;
34080;SDS011;20358;50.272;19.026;2022-09-09T04:12:53;24.33;;;19.60;;
34080;SDS011;20358;50.272;19.026;2022-09-09T04:16:00;22.53;;;17.77;;
34080;SDS011;20358;50.272;19.026;2022-09-09T04:19:09;21.73;;;19.13;;
34080;SDS011;20358;50.272;19.026;2022-09-09T04:22:21;27.73;;;20.03;;
34080;SDS011;20358;50.272;19.026;2022-09-09T04:25:28;24.27;;;19.07;;
34080;SDS011;20358;50.272;19.026;2022-09-09T04:28:36;23.33;;;18.27;;
34080;SDS011;20358;50.272;19.026;2022-09-09T04:31:50;22.77;;;17.47;;
34080;SDS011;20358;50.272;19.026;2022-09-09T04:34:57;23.63;;;18.90;;
34080;SDS011;20358;50.272;19.026;2022-09-09T04:38:07;24.60;;;19.53;;
34080;SDS011;20358;50.272;19.026;2022-09-09T04:41:15;22.57;;;19.03;;
34080;SDS011;20358;50.272;19.026;2022-09-09T04:44:25;22.30;;;17.73;;
34080;SDS011;20358;50.272;19.026;2022-09-09T04:47:31;23.87;;;19.03;;
34080;SDS011;20358;50.272;19.026;2022-09-09T04:50:38;23.03;;;19.40;;
34080;SDS011;20358;50.272;19.026;2022-09-09T04:53:50;23.93;;;19.13;;
34080;SDS011;20358;50.272;19.026;2022-09-09T04:56:56;23.10;;;19.57;;
34080;SDS011;20358;50.272;19.026;2022-09-09T05:00:06;24.10;;;19.87;;
34080;SDS011;20358;50.272;19.026;2022-09-09T05:03:15;27.37;;;20.87;;
34080;SDS011;20358;50.272;19.026;2022-09-09T05:06:23;29.10;;;21.73;;
34080;SDS011;20358;50.272;19.026;2022-09-09T05:09:35;27.63;;;21.47;;
34080;SDS011;20358;50.272;19.026;2022-09-09T05:12:42;25.50;;;21.10;;
34080;SDS011;20358;50.272;19.026;2022-09-09T05:16:02;25.30;;;20.47;;
34080;SDS011;20358;50.272;19.026;2022-09-09T05:19:09;25.13;;;20.60;;
34080;SDS011;20358;50.272;19.026;2022-09-09T05:22:22;22.93;;;19.70;;
34080;SDS011;20358;50.272;19.026;2022-09-09T05:25:32;21.83;;;18.43;;
34080;SDS011;20358;50.272;19.026;2022-09-09T05:28:39;20.43;;;18.23;;
34080;SDS011;20358;50.272;19.026;2022-09-09T05:31:47;20.33;;;17.97;;
34080;SDS011;20358;50.272;19.026;2022-09-09T05:34:55;19.43;;;17.47;;
34080;SDS011;20358;50.272;19.026;2022-09-09T05:38:04;21.17;;;17.47;;
34080;SDS011;20358;50.272;19.026;2022-09-09T05:41:13;18.80;;;16.73;;
34080;SDS011;20358;50.272;19.026;2022-09-09T05:44:22;20.53;;;18.00;;
34080;SDS011;20358;50.272;19.026;2022-09-09T05:47:30;19.23;;;16.60;;
34080;SDS011;20358;50.272;19.026;2022-09-09T05:50:37;18.10;;;16.30;;
34080;SDS011;20358;50.272;19.026;2022-09-09T05:53:43;18.83;;;16.83;;
34080;SDS011;20358;50.272;19.026;2022-09-09T05:56:53;18.60;;;16.63;;
34080;SDS011;20358;50.272;19.026;2022-09-09T05:59:59;18.63;;;16.17;;
34080;SDS011;20358;50.272;19.026;2022-09-09T06:03:15;17.97;;;16.10;;
34080;SDS011;20358;50.272;19.026;2022-09-09T06:06:29;17.63;;;15.83;;
34080;SDS011;20358;50.272;19.026;2022-09-09T06:09:45;19.30;;;15.87;;
34080;SDS011;20358;50.272;19.026;2022-09-09T06:12:55;18.87;;;16.30;;
34080;SDS011;20358;50.272;19.026;2022-09-09T06:16:04;17.90;;;16.10;;
34080;SDS011;20358;50.272;19.026;2022-09-09T06:19:11;16.93;;;15.03;;
34080;SDS011;20358;50.272;19.026;2022-09-09T06:22:18;16.97;;;14.53;;
34080;SDS011;20358;50.272;19.026;2022-09-09T06:25:24;17.70;;;15.90;;
34080;SDS011;20358;50.272;19.026;2022-09-09T06:28:35;13.87;;;12.50;;
34080;SDS011;20358;50.272;19.026;2022-09-09T06:31:41;14.00;;;12.60;;
34080;SDS011;20358;50.272;19.026;2022-09-09T06:34:51;12.20;;;11.10;;
34080;SDS011;20358;50.272;19.026;2022-09-09T06:37:58;11.47;;;10.30;;
34080;SDS011;20358;50.272;19.026;2022-09-09T06:41:07;10.97;;;9.90;;
34080;SDS011;20358;50.272;19.026;2022-09-09T06:44:17;10.23;;;9.33;;
34080;SDS011;20358;50.272;19.026;2022-09-09T06:47:27;10.60;;;9.50;;
34080;SDS011;20358;50.272;19.026;2022-09-09T06:50:36;8.73;;;7.83;;
34080;SDS011;20358;50.272;19.026;2022-09-09T06:53:44;9.37;;;7.80;;
34080;SDS011;20358;50.272;19.026;2022-09-09T06:56:52;8.57;;;7.70;;
34080;SDS011;20358;50.272;19.026;2022-09-09T07:00:05;7.90;;;7.10;;
34080;SDS011;20358;50.272;19.026;2022-09-09T07:03:14;6.97;;;6.10;;
34080;SDS011;20358;50.272;19.026;2022-09-09T07:06:22;9.40;;;6.10;;
34080;SDS011;20358;50.272;19.026;2022-09-09T07:09:29;5.93;;;5.03;;
34080;SDS011;20358;50.272;19.026;2022-09-09T07:12:36;6.07;;;5.50;;
34080;SDS011;20358;50.272;19.026;2022-09-09T07:15:48;6.80;;;5.30;;
34080;SDS011;20358;50.272;19.026;2022-09-09T07:18:54;8.73;;;5.60;;
34080;SDS011;20358;50.272;19.026;2022-09-09T07:22:04;6.43;;;5.83;;
34080;SDS011;20358;50.272;19.026;2022-09-09T07:25:12;8.27;;;5.37;;
34080;SDS011;20358;50.272;19.026;2022-09-09T07:28:21;7.13;;;4.57;;
34080;SDS011;20358;50.272;19.026;2022-09-09T07:31:33;6.87;;;4.80;;
34080;SDS011;20358;50.272;19.026;2022-09-09T07:34:44;4.67;;;4.17;;
34080;SDS011;20358;50.272;19.026;2022-09-09T07:37:53;5.00;;;4.47;;
34080;SDS011;20358;50.272;19.026;2022-09-09T07:41:03;5.57;;;4.23;;
34080;SDS011;20358;50.272;19.026;2022-09-09T07:44:15;4.87;;;4.33;;
34080;SDS011;20358;50.272;19.026;2022-09-09T07:47:36;4.77;;;4.37;;
34080;SDS011;20358;50.272;19.026;2022-09-09T07:50:44;4.90;;;4.50;;
34080;SDS011;20358;50.272;19.026;2022-09-09T07:53:52;4.90;;;4.20;;
34080;SDS011;20358;50.272;19.026;2022-09-09T07:57:02;6.17;;;5.60;;
34080;SDS011;20358;50.272;19.026;2022-09-09T08:00:11;8.17;;;6.10;;
34080;SDS011;20358;50.272;19.026;2022-09-09T08:03:27;7.70;;;5.77;;
34080;SDS011;20358;50.272;19.026;2022-09-09T08:06:35;5.53;;;4.57;;
34080;SDS011;20358;50.272;19.026;2022-09-09T08:09:45;4.40;;;3.93;;
34080;SDS011;20358;50.272;19.026;2022-09-09T08:12:59;4.47;;;4.07;;
34080;SDS011;20358;50.272;19.026;2022-09-09T08:16:24;4.23;;;3.67;;
34080;SDS011;20358;50.272;19.026;2022-09-09T08:19:36;5.67;;;3.63;;
34080;SDS011;20358;50.272;19.026;2022-09-09T08:22:48;7.70;;;3.93;;
34080;SDS011;20358;50.272;19.026;2022-09-09T08:25:54;5.23;;;4.00;;
34080;SDS011;20358;50.272;19.026;2022-09-09T08:29:03;4.63;;;3.60;;
34080;SDS011;20358;50.272;19.026;2022-09-09T08:32:10;4.90;;;3.20;;
34080;SDS011;20358;50.272;19.026;2022-09-09T08:35:19;4.07;;;3.53;;
34080;SDS011;20358;50.272;19.026;2022-09-09T08:38:25;3.97;;;3.30;;
34080;SDS011;20358;50.272;19.026;2022-09-09T08:48:56;3.80;;;3.50;;
34080;SDS011;20358;50.272;19.026;2022-09-09T08:52:12;3.80;;;3.35;;
34080;SDS011;20358;50.272;19.026;2022-09-09T08:55:35;3.20;;;2.90;;
34080;SDS011;20358;50.272;19.026;2022-09-09T08:58:46;3.65;;;2.70;;
34080;SDS011;20358;50.272;19.026;2022-09-09T09:02:17;3.47;;;2.90;;
34080;SDS011;20358;50.272;19.026;2022-09-09T09:05:32;4.47;;;2.72;;
34080;SDS011;20358;50.272;19.026;2022-09-09T09:08:48;4.03;;;2.83;;
34080;SDS011;20358;50.272;19.026;2022-09-09T09:12:10;2.85;;;2.30;;
34080;SDS011;20358;50.272;19.026;2022-09-09T09:15:23;2.60;;;2.28;;
34080;SDS011;20358;50.272;19.026;2022-09-09T09:18:34;4.65;;;2.30;;
34080;SDS011;20358;50.272;19.026;2022-09-09T09:21:43;3.15;;;2.20;;
34080;SDS011;20358;50.272;19.026;2022-09-09T09:24:56;2.60;;;1.90;;
34080;SDS011;20358;50.272;19.026;2022-09-09T09:28:18;2.67;;;2.10;;
34080;SDS011;20358;50.272;19.026;2022-09-09T09:31:35;2.13;;;1.92;;
34080;SDS011;20358;50.272;19.026;2022-09-09T09:34:42;2.35;;;1.90;;
34080;SDS011;20358;50.272;19.026;2022-09-09T09:37:54;4.10;;;1.70;;
34080;SDS011;20358;50.272;19.026;2022-09-09T09:41:31;2.35;;;1.75;;
34080;SDS011;20358;50.272;19.026;2022-09-09T09:44:42;1.88;;;1.55;;
34080;SDS011;20358;50.272;19.026;2022-09-09T09:48:00;2.20;;;1.90;;
34080;SDS011;20358;50.272;19.026;2022-09-09T09:51:12;2.83;;;1.92;;
34080;SDS011;20358;50.272;19.026;2022-09-09T09:54:24;2.53;;;1.50;;
34080;SDS011;20358;50.272;19.026;2022-09-09T09:57:39;2.13;;;1.50;;
34080;SDS011;20358;50.272;19.026;2022-09-09T10:00:49;3.05;;;1.73;;
34080;SDS011;20358;50.272;19.026;2022-09-09T10:04:13;2.75;;;1.75;;
34080;SDS011;20358;50.272;19.026;2022-09-09T10:07:26;3.30;;;2.05;;
34080;SDS011;20358;50.272;19.026;2022-09-09T10:10:45;2.90;;;1.80;;
34080;SDS011;20358;50.272;19.026;2022-09-09T10:14:08;2.45;;;1.90;;
34080;SDS011;20358;50.272;19.026;2022-09-09T10:17:25;1.98;;;1.40;;
34080;SDS011;20358;50.272;19.026;2022-09-09T10:20:43;2.42;;;1.70;;
34080;SDS011;20358;50.272;19.026;2022-09-09T10:24:04;2.83;;;1.95;;
34080;SDS011;20358;50.272;19.026;2022-09-09T10:27:24;3.25;;;1.70;;
34080;SDS011;20358;50.272;19.026;2022-09-09T10:30:44;2.15;;;1.73;;
34080;SDS011;20358;50.272;19.026;2022-09-09T10:34:04;1.60;;;1.50;;
34080;SDS011;20358;50.272;19.026;2022-09-09T10:37:28;1.80;;;1.70;;
34080;SDS011;20358;50.272;19.026;2022-09-09T10:44:24;3.63;;;2.08;;
34080;SDS011;20358;50.272;19.026;2022-09-09T10:51:14;3.00;;;1.85;;
34080;SDS011;20358;50.272;19.026;2022-09-09T10:54:42;2.05;;;1.70;;
34080;SDS011;20358;50.272;19.026;2022-09-09T10:57:59;2.33;;;1.73;;
34080;SDS011;20358;50.272;19.026;2022-09-09T11:01:11;2.38;;;1.83;;
34080;SDS011;20358;50.272;19.026;2022-09-09T11:04:25;2.30;;;1.88;;
34080;SDS011;20358;50.272;19.026;2022-09-09T11:07:39;1.90;;;1.67;;
34080;SDS011;20358;50.272;19.026;2022-09-09T11:10:48;3.15;;;1.67;;
34080;SDS011;20358;50.272;19.026;2022-09-09T11:14:01;3.03;;;1.45;;
34080;SDS011;20358;50.272;19.026;2022-09-09T11:17:12;2.38;;;1.50;;
34080;SDS011;20358;50.272;19.026;2022-09-09T11:20:25;1.60;;;1.50;;
34080;SDS011;20358;50.272;19.026;2022-09-09T11:23:33;1.75;;;1.45;;
34080;SDS011;20358;50.272;19.026;2022-09-09T11:26:47;2.67;;;1.38;;
34080;SDS011;20358;50.272;19.026;2022-09-09T11:33:50;3.75;;;1.70;;
34080;SDS011;20358;50.272;19.026;2022-09-09T11:37:20;2.00;;;1.80;;
34080;SDS011;20358;50.272;19.026;2022-09-09T11:40:41;1.98;;;1.60;;
34080;SDS011;20358;50.272;19.026;2022-09-09T11:43:47;2.40;;;1.35;;
34080;SDS011;20358;50.272;19.026;2022-09-09T11:46:57;5.15;;;1.55;;
34080;SDS011;20358;50.272;19.026;2022-09-09T11:50:22;3.08;;;1.90;;
34080;SDS011;20358;50.272;19.026;2022-09-09T11:53:47;3.88;;;1.65;;
34080;SDS011;20358;50.272;19.026;2022-09-09T11:56:53;3.72;;;1.70;;
34080;SDS011;20358;50.272;19.026;2022-09-09T12:00:02;3.83;;;1.90;;
34080;SDS011;20358;50.272;19.026;2022-09-09T12:03:34;2.65;;;1.67;;
34080;SDS011;20358;50.272;19.026;2022-09-09T12:06:50;2.38;;;1.50;;
34080;SDS011;20358;50.272;19.026;2022-09-09T12:10:02;2.08;;;1.90;;
34080;SDS011;20358;50.272;19.026;2022-09-09T12:13:15;2.15;;;1.42;;
34080;SDS011;20358;50.272;19.026;2022-09-09T12:16:29;1.50;;;1.40;;
34080;SDS011;20358;50.272;19.026;2022-09-09T12:19:39;4.10;;;2.03;;
34080;SDS011;20358;50.272;19.026;2022-09-09T12:22:57;2.50;;;1.85;;
34080;SDS011;20358;50.272;19.026;2022-09-09T12:26:26;1.90;;;1.58;;
34080;SDS011;20358;50.272;19.026;2022-09-09T12:29:38;2.22;;;1.45;;
34080;SDS011;20358;50.272;19.026;2022-09-09T12:32:58;1.85;;;1.70;;
34080;SDS011;20358;50.272;19.026;2022-09-09T12:36:08;1.45;;;1.35;;
34080;SDS011;20358;50.272;19.026;2022-09-09T12:39:21;2.88;;;1.63;;
34080;SDS011;20358;50.272;19.026;2022-09-09T12:42:39;2.38;;;1.35;;
34080;SDS011;20358;50.272;19.026;2022-09-09T12:45:47;1.45;;;1.25;;
34080;SDS011;20358;50.272;19.026;2022-09-09T12:49:00;2.15;;;1.40;;
34080;SDS011;20358;50.272;19.026;2022-09-09T12:52:12;2.55;;;1.70;;
34080;SDS011;20358;50.272;19.026;2022-09-09T12:55:24;2.85;;;1.70;;
34080;SDS011;20358;50.272;19.026;2022-09-09T12:58:37;1.50;;;1.40;;
34080;SDS011;20358;50.272;19.026;2022-09-09T13:01:44;1.63;;;1.48;;
34080;SDS011;20358;50.272;19.026;2022-09-09T13:05:09;2.05;;;1.58;;
34080;SDS011;20358;50.272;19.026;2022-09-09T13:08:21;1.60;;;1.50;;
34080;SDS011;20358;50.272;19.026;2022-09-09T13:11:30;1.40;;;1.30;;
34080;SDS011;20358;50.272;19.026;2022-09-09T13:14:45;2.92;;;1.60;;
34080;SDS011;20358;50.272;19.026;2022-09-09T13:17:55;1.80;;;1.63;;
34080;SDS011;20358;50.272;19.026;2022-09-09T13:21:04;1.83;;;1.52;;
34080;SDS011;20358;50.272;19.026;2022-09-09T13:24:22;2.38;;;1.42;;
34080;SDS011;20358;50.272;19.026;2022-09-09T13:27:32;1.67;;;1.58;;
34080;SDS011;20358;50.272;19.026;2022-09-09T13:30:54;1.65;;;1.40;;
34080;SDS011;20358;50.272;19.026;2022-09-09T13:34:10;1.60;;;1.50;;
34080;SDS011;20358;50.272;19.026;2022-09-09T13:37:20;2.92;;;1.70;;
34080;SDS011;20358;50.272;19.026;2022-09-09T13:40:30;2.45;;;1.50;;
34080;SDS011;20358;50.272;19.026;2022-09-09T13:43:38;1.83;;;1.50;;
34080;SDS011;20358;50.272;19.026;2022-09-09T13:47:02;1.75;;;1.60;;
34080;SDS011;20358;50.272;19.026;2022-09-09T13:50:19;2.22;;;1.55;;
34080;SDS011;20358;50.272;19.026;2022-09-09T13:53:26;3.95;;;1.70;;
34080;SDS011;20358;50.272;19.026;2022-09-09T13:56:33;1.98;;;1.27;;
34080;SDS011;20358;50.272;19.026;2022-09-09T13:59:39;2.72;;;1.75;;
34080;SDS011;20358;50.272;19.026;2022-09-09T14:03:09;3.80;;;1.60;;
34080;SDS011;20358;50.272;19.026;2022-09-09T14:06:16;2.63;;;1.98;;
34080;SDS011;20358;50.272;19.026;2022-09-09T14:09:25;1.83;;;1.48;;
34080;SDS011;20358;50.272;19.026;2022-09-09T14:12:30;2.65;;;1.77;;
34080;SDS011;20358;50.272;19.026;2022-09-09T14:15:37;2.42;;;1.70;;
34080;SDS011;20358;50.272;19.026;2022-09-09T14:18:46;3.05;;;1.50;;
34080;SDS011;20358;50.272;19.026;2022-09-09T14:21:53;3.75;;;1.58;;
34080;SDS011;20358;50.272;19.026;2022-09-09T14:24:59;2.63;;;1.58;;
34080;SDS011;20358;50.272;19.026;2022-09-09T14:28:10;3.22;;;1.60;;
34080;SDS011;20358;50.272;19.026;2022-09-09T14:31:17;1.42;;;1.33;;
34080;SDS011;20358;50.272;19.026;2022-09-09T14:34:26;5.18;;;1.60;;
34080;SDS011;20358;50.272;19.026;2022-09-09T14:37:34;5.75;;;1.70;;
34080;SDS011;20358;50.272;19.026;2022-09-09T14:40:44;3.60;;;1.95;;
34080;SDS011;20358;50.272;19.026;2022-09-09T14:43:51;4.13;;;2.00;;
34080;SDS011;20358;50.272;19.026;2022-09-09T14:46:57;3.92;;;1.80;;
34080;SDS011;20358;50.272;19.026;2022-09-09T14:50:08;2.97;;;1.70;;
34080;SDS011;20358;50.272;19.026;2022-09-09T14:53:18;1.67;;;1.58;;
34080;SDS011;20358;50.272;19.026;2022-09-09T14:56:24;3.65;;;1.70;;
34080;SDS011;20358;50.272;19.026;2022-09-09T14:59:33;2.33;;;1.50;;
34080;SDS011;20358;50.272;19.026;2022-09-09T15:02:39;3.80;;;1.65;;
34080;SDS011;20358;50.272;19.026;2022-09-09T15:05:49;4.00;;;1.90;;
34080;SDS011;20358;50.272;19.026;2022-09-09T15:08:55;3.35;;;2.03;;
34080;SDS011;20358;50.272;19.026;2022-09-09T15:12:06;3.45;;;1.80;;
34080;SDS011;20358;50.272;19.026;2022-09-09T15:15:12;2.03;;;1.80;;
34080;SDS011;20358;50.272;19.026;2022-09-09T15:18:19;3.88;;;2.50;;
34080;SDS011;20358;50.272;19.026;2022-09-09T15:21:28;3.33;;;1.80;;
34080;SDS011;20358;50.272;19.026;2022-09-09T15:24:36;2.45;;;2.10;;
34080;SDS011;20358;50.272;19.026;2022-09-09T15:27:42;4.82;;;2.28;;
34080;SDS011;20358;50.272;19.026;2022-09-09T15:30:49;2.42;;;1.73;;
34080;SDS011;20358;50.272;19.026;2022-09-09T15:33:56;3.95;;;2.33;;
34080;SDS011;20358;50.272;19.026;2022-09-09T15:37:08;2.47;;;2.22;;
34080;SDS011;20358;50.272;19.026;2022-09-09T15:40:16;3.20;;;2.53;;
34080;SDS011;20358;50.272;19.026;2022-09-09T15:43:22;7.78;;;3.10;;
34080;SDS011;20358;50.272;19.026;2022-09-09T15:46:29;3.42;;;2.30;;
34080;SDS011;20358;50.272;19.026;2022-09-09T15:49:39;3.33;;;2.35;;
34080;SDS011;20358;50.272;19.026;2022-09-09T15:52:47;5.47;;;2.40;;
34080;SDS011;20358;50.272;19.026;2022-09-09T15:55:56;3.97;;;2.13;;
34080;SDS011;20358;50.272;19.026;2022-09-09T15:59:03;3.38;;;2.03;;
34080;SDS011;20358;50.272;19.026;2022-09-09T16:02:10;2.72;;;2.03;;
34080;SDS011;20358;50.272;19.026;2022-09-09T16:05:19;2.85;;;1.95;;
34080;SDS011;20358;50.272;19.026;2022-09-09T16:08:33;3.40;;;1.95;;
34080;SDS011;20358;50.272;19.026;2022-09-09T16:11:39;3.03;;;2.20;;
34080;SDS011;20358;50.272;19.026;2022-09-09T16:14:46;2.92;;;2.25;;
34080;SDS011;20358;50.272;19.026;2022-09-09T16:17:52;3.63;;;2.47;;
34080;SDS011;20358;50.272;19.026;2022-09-09T16:20:59;5.45;;;2.30;;
34080;SDS011;20358;50.272;19.026;2022-09-09T16:24:11;4.70;;;2.47;;
34080;SDS011;20358;50.272;19.026;2022-09-09T16:27:21;3.63;;;2.40;;
34080;SDS011;20358;50.272;19.026;2022-09-09T16:30:27;5.43;;;2.58;;
34080;SDS011;20358;50.272;19.026;2022-09-09T16:33:34;3.88;;;2.40;;
34080;SDS011;20358;50.272;19.026;2022-09-09T16:36:40;4.22;;;2.55;;
34080;SDS011;20358;50.272;19.026;2022-09-09T16:39:51;5.47;;;2.88;;
34080;SDS011;20358;50.272;19.026;2022-09-09T16:42:58;4.82;;;3.00;;
34080;SDS011;20358;50.272;19.026;2022-09-09T16:46:11;7.15;;;3.35;;
34080;SDS011;20358;50.272;19.026;2022-09-09T16:49:21;5.00;;;2.50;;
34080;SDS011;20358;50.272;19.026;2022-09-09T16:52:28;8.07;;;2.92;;
34080;SDS011;20358;50.272;19.026;2022-09-09T16:55:40;5.07;;;2.47;;
34080;SDS011;20358;50.272;19.026;2022-09-09T16:58:49;4.20;;;2.50;;
34080;SDS011;20358;50.272;19.026;2022-09-09T17:01:56;4.50;;;3.03;;
34080;SDS011;20358;50.272;19.026;2022-09-09T17:05:06;9.10;;;3.47;;
34080;SDS011;20358;50.272;19.026;2022-09-09T17:08:12;9.40;;;3.57;;
34080;SDS011;20358;50.272;19.026;2022-09-09T17:11:22;11.30;;;3.57;;
34080;SDS011;20358;50.272;19.026;2022-09-09T17:14:29;11.43;;;3.60;;
34080;SDS011;20358;50.272;19.026;2022-09-09T17:17:37;15.90;;;3.67;;
34080;SDS011;20358;50.272;19.026;2022-09-09T17:20:46;11.70;;;3.50;;
34080;SDS011;20358;50.272;19.026;2022-09-09T17:23:53;10.70;;;3.53;;
34080;SDS011;20358;50.272;19.026;2022-09-09T17:27:05;7.83;;;3.90;;
34080;SDS011;20358;50.272;19.026;2022-09-09T17:30:12;9.70;;;3.93;;
34080;SDS011;20358;50.272;19.026;2022-09-09T17:33:19;9.33;;;3.90;;
34080;SDS011;20358;50.272;19.026;2022-09-09T17:36:27;8.30;;;3.73;;
34080;SDS011;20358;50.272;19.026;2022-09-09T17:39:34;8.20;;;3.47;;
34080;SDS011;20358;50.272;19.026;2022-09-09T17:42:44;7.60;;;3.83;;
34080;SDS011;20358;50.272;19.026;2022-09-09T17:45:50;10.33;;;4.47;;
34080;SDS011;20358;50.272;19.026;2022-09-09T17:48:57;14.50;;;4.73;;
34080;SDS011;20358;50.272;19.026;2022-09-09T17:52:05;9.50;;;4.10;;
34080;SDS011;20358;50.272;19.026;2022-09-09T17:55:11;13.07;;;3.97;;
34080;SDS011;20358;50.272;19.026;2022-09-09T17:58:21;6.47;;;3.90;;
34080;SDS011;20358;50.272;19.026;2022-09-09T18:01:28;12.47;;;3.60;;
34080;SDS011;20358;50.272;19.026;2022-09-09T18:04:36;8.03;;;3.80;;
34080;SDS011;20358;50.272;19.026;2022-09-09T18:07:45;5.17;;;3.33;;
34080;SDS011;20358;50.272;19.026;2022-09-09T18:10:51;4.00;;;3.00;;
34080;SDS011;20358;50.272;19.026;2022-09-09T18:14:02;7.90;;;3.73;;
34080;SDS011;20358;50.272;19.026;2022-09-09T18:17:11;3.23;;;2.93;;
34080;SDS011;20358;50.272;19.026;2022-09-09T18:20:18;6.93;;;3.50;;
34080;SDS011;20358;50.272;19.026;2022-09-09T18:23:25;8.70;;;5.40;;
34080;SDS011;20358;50.272;19.026;2022-09-09T18:26:32;5.90;;;3.83;;
34080;SDS011;20358;50.272;19.026;2022-09-09T18:29:43;4.60;;;4.20;;
34080;SDS011;20358;50.272;19.026;2022-09-09T18:32:50;5.10;;;3.70;;
34080;SDS011;20358;50.272;19.026;2022-09-09T18:35:56;4.40;;;4.00;;
34080;SDS011;20358;50.272;19.026;2022-09-09T18:39:12;5.10;;;4.20;;
34080;SDS011;20358;50.272;19.026;2022-09-09T18:42:21;6.40;;;4.37;;
34080;SDS011;20358;50.272;19.026;2022-09-09T18:45:31;7.27;;;4.60;;
34080;SDS011;20358;50.272;19.026;2022-09-09T18:48:39;9.40;;;4.50;;
34080;SDS011;20358;50.272;19.026;2022-09-09T18:51:48;5.13;;;4.63;;
34080;SDS011;20358;50.272;19.026;2022-09-09T18:54:54;10.37;;;5.77;;
34080;SDS011;20358;50.272;19.026;2022-09-09T18:58:02;9.33;;;6.70;;
34080;SDS011;20358;50.272;19.026;2022-09-09T19:01:11;9.17;;;7.83;;
34080;SDS011;20358;50.272;19.026;2022-09-09T19:04:19;14.23;;;8.40;;